Sunday, December 17, 2017, 2:41 PM EST
Back to Local

KHGR, Hagerstown Regional Airport

Location: Hagerstown, MD, United States Lat: 39.7
Local Time: 2:41 PM EST (19:41 GMT) Lon: -77.733
Time Zone: US/Eastern Elev: 705 ft

Show me the last for .
Show Coded

Time T Td Feel RH Dir Speed Gust Alt SLP Vis Weather Sky Remarks
2017-12-17 13:53 47 29 - 49 - Calm - 30.17 30.21 10 CLR None
2017-12-17 12:53 47 30 46 51 350° 3 - 30.18 30.22 10 CLR 6-hr Min Temp (1pm): 30.0°F
6-hr Max Temp (1pm): 46.9°F
2017-12-17 11:53 41 28 39 59 140° 3 - 30.23 30.27 9 CLR Pressure falling rapidly
2017-12-17 10:53 40 27 36 59 190° 6 - 30.26 30.31 9 CLR None
2017-12-17 09:53 37 27 32 66 180° 7 - 30.24 30.28 9 CLR None
2017-12-17 08:53 34 26 29 72 160° 6 - 30.24 30.29 8 CLR None
2017-12-17 07:53 32 24 26 72 160° 7 - 30.22 30.27 7 CLR None
2017-12-17 06:53 31 24 26 75 150° 5 - 30.22 30.27 8 CLR 6-hr Min Temp (7am): 30.0°F
6-hr Max Temp (7am): 35.1°F
2017-12-17 05:53 31 23 - 72 - Calm - 30.21 30.25 8 CLR None
2017-12-17 04:53 30 22 25 71 170° 5 - 30.19 30.24 9 CLR None
2017-12-17 03:53 31 23 25 72 170° 6 - 30.20 30.25 9 CLR None
2017-12-17 02:53 32 23 26 68 180° 6 - 30.21 30.25 9 CLR None
2017-12-17 01:53 32 23 27 68 160° 5 - 30.19 30.23 8 CLR None
2017-12-17 00:53 35 23 31 61 170° 5 - 30.17 30.21 10 CLR 6-hr Min Temp (1am): 33.1°F
6-hr Max Temp (1am): 43.0°F
2017-12-16 23:53 34 23 - 63 - Calm - 30.17 30.21 10 CLR 24-hr Min Temp (12am): 30.0°F
24-hr Max Temp (12am): 48.0°F
2017-12-16 22:53 34 24 - 66 - Calm - 30.16 30.20 9 CLR None
2017-12-16 21:53 36 23 - 58 - Calm - 30.14 30.18 10 CLR None
2017-12-16 20:53 37 24 - 59 - Calm - 30.13 30.18 10 CLR None
2017-12-16 19:53 36 23 - 58 - Calm - 30.13 30.17 10 CLR None
2017-12-16 18:53 43 24 - 46 - Calm - 30.11 30.15 10 CLR 6-hr Min Temp (7pm): 41.0°F
6-hr Max Temp (7pm): 48.0°F
2017-12-16 17:53 43 24 41 46 250° 3 - 30.08 30.12 10 CLR None
2017-12-16 16:53 43 25 41 48 170° 3 - 30.05 30.09 10 CLR None
2017-12-16 15:53 46 25 41 43 270° 9 - 30.02 30.07 10 FEW100 None
2017-12-16 14:53 46 26 38 45 250° 13 21 30.02 30.06 10 OVC095 None

Support USWX by starting your Amazon purchase here.